Ana Sayfa
METAR-TAF:

METAR-TAF

Havaalanları :

Taree, Avustralya

Enlem: 31-53-19S, Boylam: 152-30-50E, yükseklik: 12 m

Güncel hava durumu gözlemi

Rapor saat 12:00 UTC de 39 dakika önce yapıldı.
Rüzgar batıdan 8 kt
Sıcaklık 14°C
Nem 77%
Basınç 1018 hPa
Görüş mesafesi 10 km veya daha fazla

METAR: YTRE 171200Z AUTO 27008KT 9999 // NCD 14/10 Q1018

Saat: 22:39 (12:39 UTC)

Tahmin

Rapor saat 00:33 UTC de 12 saat ve 6 dakika önce yapıldı.
Ayın 17'si saat 02 UTC'den ayın 17'si saat 14 UTC'ye kadar geçerli Tahmin
Rüzgar güneybatıdan 12 kt
Görüş mesafesi 10 km veya daha fazla
1500 ft yükseklikte az bulutlu
3000 ft yükseklikte parçalı çok bulutlu
hafif sağanak yağmurlar

TAF: YTRE 170033Z 1702/1714 23012KT 9999 -SHRA FEW015 BKN030

4.000'den fazla havaalanı için hava durumu gözlemleri ve tahminleri (METAR ve TAF raporları).

Kullanılabilir istasyonlar harita üzerinde sarı ve kırmızı noktalarla gösterilir.

İstasyonun adını görmek için fareyi noktanın üzerinde gezdirin.

Sonrasında hava gözlem ve tahminlerini görmek için tıklayın.

Haritayı değiştirmek için: yaklaştırmak için siyah artı işaretli yeşil düğmeye ve uzaklaştırmak için de eksi işaretli düğmeye hızla tıklayın; bitişik haritalar için yeşil okları kullanın.


METAR-TAF: